San Antonio, Valles Caldera, New Mexico Weather observations

Data are for 10 minute period ending at time listed.
 Day   Time   Solar   Ave.   Ave.  Ave.  Vector  Max.   Baro.   Total    
  of    of     Rad.   Air    Rel.  Wind   Wind   Wind  Press.  Precip.   
Year   Day            Temp.  Hum.  Speed  Dir.   Gust                    
2014   (MST)  Kw/m2    F      %     mph   deg.    mph    mb.     in.     
-------------------------------------------------------------------------
 239   21:20   0.00   46.7    72    3.3    37     4.8   396.5    0.00 
 239   21:30   0.00   46.3    73    2.7    37     4.2   396.5    0.00 
 239   21:40   0.00   45.9    73    2.3    29     3.6   396.5    0.00 
 239   21:50   0.00   45.5    74    2.3    36     4.2   396.5    0.00 
 239   22:00   0.00   45.4    74    2.2     9     4.2   396.5    0.00 
 239   22:10   0.00   45.4    74    2.7    25     4.8   396.5    0.00 
 239   22:20   0.00   43.9    77    2.4   103     3.6   396.5    0.00 
 239   22:30   0.00   42.6    82    1.3    16     3.0   396.9    0.00 
 239   22:40   0.00   42.8    80    2.5    22     4.2   396.9    0.00 
 239   22:50   0.00   43.1    79    1.2    22     2.4   396.5    0.00 
 239   23:00   0.00   42.9    79    0.4    95     2.4   396.5    0.00 
 239   23:10   0.00   42.0    82    1.3    58     3.0   396.5    0.00 
 239   23:20   0.00   41.9    82    0.8    61     1.8   396.9    0.00 
 239   23:30   0.00   41.8    81    1.4    22     3.0   396.5    0.00 
 239   23:40   0.00   41.5    81    1.3    35     3.6   396.9    0.00 
 239   23:50   0.00   41.4    82    1.3    39     3.0   396.5    0.00 
 240    0:00   0.00   40.9    83    0.9   264     1.8   396.9    0.00 
 240    0:10   0.00   40.0    85    0.6   346     2.4   396.9    0.00 
 240    0:20   0.00   39.6    86    0.0     0     0.0   397.2    0.00 
 240    0:30   0.00   39.3    87    0.8     4     2.4   397.2    0.00 
 240    0:40   0.00   39.2    87    0.3    69     1.8   397.2    0.00 
 240    0:50   0.00   39.1    87    1.2    96     2.4   397.2    0.00 
 240    1:00   0.00   38.9    87    1.3    20     3.6   397.2    0.00 
 240    1:10   0.00   38.7    88    1.4   354     2.4   397.2    0.00 
 240    1:20   0.00   38.3    88    0.0     0     0.0   397.2    0.00 
 240    1:30   0.00   38.0    88    0.7   291     2.4   397.2    0.00 
 240    1:40   0.00   37.2    89    0.4   319     2.4   397.2    0.00 
 240    1:50   0.00   37.2    91    0.9   105     2.4   397.2    0.00 
 240    2:00   0.00   37.2    91    0.1    60     1.8   397.6    0.00 
 240    2:10   0.00   36.8    91    0.0     0     0.0   397.6    0.00 
 240    2:20   0.00   36.8    92    0.0     0     0.0   397.6    0.00 
 240    2:30   0.00   36.9    92    0.0     0     0.0   397.6    0.00 
 240    2:40   0.00   36.4    91    0.0     0     0.0   397.6    0.00 
 240    2:50   0.00   36.1    92    0.7   347     2.4   397.6    0.00 
 240    3:00   0.00   36.4    93    0.2   120     2.4   397.6    0.00 
 240    3:10   0.00   35.6    92    0.6   154     2.4   397.6    0.00 
 240    3:20   0.00   35.5    93    0.1   343     1.8   397.6    0.00 
 240    3:30   0.00   35.4    93    0.0     0     0.0   397.6    0.00 
 240    3:40   0.00   35.1    93    0.0     0     0.0   397.6    0.00 
 240    3:50   0.00   35.2    94    1.0   105     2.4   397.6    0.00 
 240    4:00   0.00   35.1    94    0.4    44     2.4   397.9    0.00 
 240    4:10   0.00   34.7    94    1.7   302     3.6   397.6    0.00 
 240    4:20   0.00   34.1    94    1.4   110     3.6   397.9    0.00 
 240    4:30   0.00   34.2    94    1.2   306     3.6   397.9    0.00 
 240    4:40   0.00   34.0    94    1.8   337     3.6   397.9    0.00 
 240    4:50   0.00   34.3    95    0.6    45     2.4   397.9    0.00 
 240    5:00   0.00   33.6    94    0.4    53     1.8   397.9    0.00 
 240    5:10   0.00   33.3    95    0.2   300     2.4   397.9    0.00 
 240    5:20   0.00   33.1    95    0.0     0     0.0   397.9    0.00 
 240    5:30   0.00   33.2    95    0.7   116     3.0   397.9    0.00 
 240    5:40   0.00   32.8    95    0.1   158     1.8   397.9    0.00 
 240    5:50   0.01   32.5    95    1.7   124     3.6   397.9    0.00 
 240    6:00   0.01   32.5    95    1.0     0     3.0   397.9    0.00 
 240    6:10   0.01   33.6    96    0.5   324     3.0   397.9    0.00 
 240    6:20   0.01   34.0    96    0.1   330     1.8   397.9    0.00 
 240    6:30   0.01   33.9    95    0.2   116     1.8   397.9    0.00 
 240    6:40   0.02   33.4    95    0.0     0     0.0   397.9    0.00 
 240    6:50   0.08   34.1    95    0.1    92     1.8   397.9    0.00 
 240    7:00   0.22   39.6    96    0.0     0     0.0   398.2    0.00 
 240    7:10   0.25   44.1    84    1.0   134     3.0   397.6    0.00 
 240    7:20   0.29   47.6    75    0.2    57     1.8   396.9    0.00 
 240    7:30   0.32   49.7    71    1.0   258     3.0   396.9    0.00 
 240    7:40   0.35   50.5    72    1.2   240     3.6   396.9    0.00 
 240    7:50   0.39   54.0    67    1.3   266     4.8   397.2    0.00 
 240    8:00   0.43   56.2    61    4.5   294     7.8   397.2    0.00 
 240    8:10   0.52   60.1    51    6.9   291    11.3   397.6    0.00 
 240    8:20   0.60   61.5    48    7.9   324    12.5   397.6    0.00 
 240    8:30   0.64   62.5    46    6.6   299    11.9   397.9    0.00 
 240    8:40   0.59   63.2    45    6.6   290    11.9   398.2    0.00 
 240    8:50   0.46   61.0    48    7.8   272    13.1   398.2    0.00 
 240    9:00   0.53   61.2    48    9.1   278    16.1   398.6    0.00 
 240    9:10   0.48   61.2    49    7.1   292    11.3   398.9    0.00 
 240    9:20   0.41   60.7    49    7.7   297    11.3   398.9    0.00 
 240    9:30   0.26   59.0    52    6.3   297    13.1   398.6    0.00 
 240    9:40   0.66   60.2    50    7.4   299    14.9   398.9    0.00 
 240    9:50   0.52   60.7    49    9.3   276    14.9   398.9    0.00 
 240   10:00   0.57   59.3    50   10.0   274    14.9   398.9    0.00 
 240   10:10   0.63   61.4    48    9.5   281    15.5   399.3    0.00 
 240   10:20   0.38   59.3    50   10.7   271    15.5   398.6    0.00 
 240   10:30   0.33   59.3    51    8.1   280    13.1   398.6    0.00 
 240   10:40   0.24   59.0    49    8.1   294    16.1   398.6    0.00 
 240   10:50   0.53   59.5    51    6.0   305    13.1   398.6    0.00 
 240   11:00   0.52   60.6    48    7.5   309    14.3   398.6    0.00 
 240   11:10   0.42   60.4    47    6.2   308    10.8   398.6    0.00 
 240   11:20   0.30   60.5    48    6.1   300    10.8   398.6    0.00 
 240   11:30   0.59   61.2    47    7.3   277    14.9   398.9    0.00 
 240   11:40   0.52   61.6    45    8.2   290    14.9   398.9    0.00 
 240   11:50   0.46   61.4    45    6.8   313    12.5   398.9    0.00 
 240   12:00   0.55   62.4    44    7.0   295    13.1   398.9    0.00 
 240   12:10   0.28   61.5    44    6.9   298    13.1   398.6    0.00 
 240   12:20   0.18   61.0    46    6.3   301    10.8   398.6    0.00 
 240   12:30   0.28   60.4    48    7.0   276    12.5   398.6    0.00 
 240   12:40   0.24   60.8    46    6.9   295    12.5   398.6    0.00 
 240   12:50   0.63   61.4    47    7.3   284    13.7   398.9    0.00 
 240   13:00   0.49   63.5    43    7.2   290    13.1   399.3    0.00 
 240   13:10   0.47   63.0    44    7.4   296    13.1   399.3    0.00 
 240   13:20   0.29   63.0    43    6.7   303    13.1   399.3    0.00 
 240   13:30   0.44   62.9    43    5.2   310    10.8   399.3    0.00 
 240   13:40   0.18   62.5    43    5.6   302    11.3   398.9    0.00 
 240   13:50   0.26   62.2    43    5.3   307     9.0   398.9    0.00 
 240   14:00   0.19   61.9    42    6.9   305    13.1   398.9    0.00 
 240   14:10   0.76   63.5    40    7.8   284    13.7   399.3    0.00 
 240   14:20   0.87   66.6    38    8.3   272    13.7   399.9    0.00 
 240   14:30   0.23   65.5    38    8.2   283    13.1   399.9    0.00 
 240   14:40   0.19   62.9    38    5.8   301    10.2   399.6    0.00 
 240   14:50   0.68   65.0    38    6.6   294    11.9   399.9    0.00 
 240   15:00   0.60   66.6    36    8.9   268    14.3   400.3    0.00 
 240   15:10   0.75   69.0    32    6.6   293    12.5   400.6    0.00 
 240   15:20   0.74   69.2    33    8.8   265    19.7   401.3    0.00 
 240   15:30   0.58   68.3    34    6.1   288    11.3   401.3    0.00 
 240   15:40   0.66   69.2    33    7.8   273    14.3   402.0    0.00 
 240   15:50   0.36   68.1    34    7.7   280    17.3   402.0    0.00 
 240   16:00   0.49   66.7    34    7.9   287    12.5   401.6    0.00 
 240   16:10   0.54   69.2    34    5.9   274     9.6   401.6    0.00 
 240   16:20   0.55   70.1    32    8.2   287    16.7   402.0    0.00 
 240   16:30   0.39   68.5    34    9.4   283    17.3   402.0    0.00 
 240   16:40   0.35   67.0    36    8.3   287    14.3   401.6    0.00 
 240   16:50   0.36   67.3    35    8.7   282    14.9   401.6    0.00 
 240   17:00   0.24   67.7    35    7.0   290    12.5   401.3    0.00 
 240   17:10   0.23   65.5    38    7.1   284    11.9   400.9    0.00 
 240   17:20   0.25   66.8    36    8.2   284    13.7   400.6    0.00 
 240   17:30   0.21   67.0    36    6.5   294    11.3   400.6    0.00 
 240   17:40   0.18   66.7    35    7.5   293    13.1   400.3    0.00 
 240   17:50   0.15   65.7    37    6.4   287    12.5   400.3    0.00 
 240   18:00   0.12   65.6    37    5.1   302    11.3   399.9    0.00 
 240   18:10   0.08   65.0    38    5.2   296     9.6   399.9    0.00 
 240   18:20   0.04   64.5    41    2.8   317     6.0   399.6    0.00 
 240   18:30   0.01   62.4    44    3.0   342     4.8   399.3    0.00 
 240   18:40   0.01   59.5    50    3.4   352     5.4   398.9    0.00 
 240   18:50   0.00   57.5    55    3.6    12     5.4   398.6    0.00 
 240   19:00   0.00   55.9    59    3.3     6     4.8   398.2    0.00 
 240   19:10   0.00   54.2    63    1.5    65     3.0   397.9    0.00 
 240   19:20   0.00   52.1    68    1.6    93     2.4   397.9    0.00 
 240   19:30   0.00   51.8    68    1.0    80     2.4   397.6    0.00 
 240   19:40   0.00   51.4    69    1.3    41     3.6   397.2    0.00 
 240   19:50   0.00   50.9    70    2.5    36     3.6   397.2    0.00 
 240   20:00   0.00   50.5    70    2.7    30     3.6   397.2    0.00 
 240   20:10   0.00   49.7    72    2.5    21     4.2   397.2    0.00 
 240   20:20   0.00   49.3    72    2.1    24     3.6   396.9    0.00 
 240   20:30   0.00   49.0    72    2.0    34     3.0   396.9    0.00 
 240   20:40   0.00   49.0    71    0.9    52     2.4   396.9    0.00 
 240   20:50   0.00   48.3    73    0.4    36     2.4   396.9    0.00 
 240   21:00   0.00   47.6    74    1.0    41     3.0   396.9    0.00 
 240   21:10   0.00   47.3    75    1.3    36     2.4   396.9    0.00 

Return to San Antonio, Valles Caldera graphs page.


Western Regional Climate Center,wrcc@dri.edu